Time;durP1;ratioP1;P1;durP2;ratioP2;P2;SDS_P1;SDS_P2;PMS_P1;PMS_P2;Temp;Humidity;BMP_temperature;BMP_pressure;BME280_temperature;BME280_humidity;BME280_pressure;Samples;Min_cycle;Max_cycle;Signal;HPM_P1;HPM_P2
2023/10/27 00:00:36;;;;;;;17.43;10.40;;;10.90;99.90;;;;;;5096209;28;20167;-77
2023/10/27 00:03:02;;;;;;;15.60;11.10;;;10.90;99.90;;;;;;5095811;28;20226;-77
2023/10/27 00:05:27;;;;;;;17.33;11.30;;;10.90;99.90;;;;;;5096002;28;20676;-77
2023/10/27 00:07:53;;;;;;;13.77;10.20;;;10.90;99.90;;;;;;5095763;28;20175;-77
2023/10/27 00:10:18;;;;;;;16.63;10.20;;;10.90;99.90;;;;;;5093342;28;20178;-77
2023/10/27 00:12:44;;;;;;;16.70;10.60;;;11.00;99.90;;;;;;5095680;28;20257;-77
2023/10/27 00:15:10;;;;;;;15.57;10.87;;;11.00;99.90;;;;;;5095349;28;20202;-77
2023/10/27 00:17:36;;;;;;;18.60;11.30;;;11.00;99.90;;;;;;5095734;28;20190;-77
2023/10/27 00:20:03;;;;;;;14.90;10.87;;;11.00;99.90;;;;;;5095735;28;20170;-77
2023/10/27 00:22:29;;;;;;;17.37;10.77;;;11.00;99.90;;;;;;5094295;28;20166;-77
2023/10/27 00:24:54;;;;;;;21.33;10.63;;;11.00;99.90;;;;;;5095308;28;20194;-77
2023/10/27 00:27:20;;;;;;;15.17;10.50;;;11.00;99.90;;;;;;5079577;28;20187;-77
2023/10/27 00:29:46;;;;;;;17.57;10.60;;;11.00;99.90;;;;;;5074945;28;20270;-77
2023/10/27 00:32:12;;;;;;;19.07;10.93;;;11.00;99.90;;;;;;5075023;28;20554;-77
2023/10/27 00:34:37;;;;;;;12.83;10.63;;;10.90;99.90;;;;;;5074961;28;20271;-77
2023/10/27 00:37:03;;;;;;;12.70;10.27;;;11.00;99.90;;;;;;5075305;28;20198;-77
2023/10/27 00:39:29;;;;;;;18.00;10.20;;;11.00;99.90;;;;;;5074743;28;20482;-78
2023/10/27 00:41:54;;;;;;;19.77;10.23;;;11.00;99.90;;;;;;5077956;28;20209;-77
2023/10/27 00:44:20;;;;;;;16.13;9.37;;;11.00;99.90;;;;;;5095207;28;20197;-77
2023/10/27 00:46:45;;;;;;;14.10;9.40;;;11.00;99.90;;;;;;5095391;28;20215;-77
2023/10/27 00:49:14;;;;;;;18.23;10.47;;;11.00;99.90;;;;;;5095294;28;20178;-77
2023/10/27 00:51:40;;;;;;;12.87;9.13;;;11.00;99.90;;;;;;5093570;28;20178;-77
2023/10/27 00:54:10;;;;;;;17.47;9.93;;;11.00;99.90;;;;;;5094658;28;20263;-77
2023/10/27 00:56:36;;;;;;;16.80;10.07;;;11.10;99.90;;;;;;5094581;28;20198;-76
2023/10/27 00:59:02;;;;;;;16.00;9.57;;;11.00;99.90;;;;;;5090903;28;20178;-77
2023/10/27 01:01:28;;;;;;;19.10;9.50;;;11.10;99.90;;;;;;5093251;28;20178;-77
2023/10/27 01:03:55;;;;;;;14.67;9.10;;;11.00;99.90;;;;;;5093980;28;20183;-77
2023/10/27 01:06:22;;;;;;;12.43;8.67;;;11.10;99.90;;;;;;5095588;28;20515;-77
2023/10/27 01:08:48;;;;;;;14.47;8.40;;;11.00;99.90;;;;;;5095438;28;20544;-77
2023/10/27 01:11:16;;;;;;;13.83;9.27;;;11.10;99.90;;;;;;5095641;28;20178;-78
2023/10/27 01:13:41;;;;;;;15.20;8.73;;;11.00;99.90;;;;;;5094060;28;20174;-77
2023/10/27 01:16:07;;;;;;;13.20;8.53;;;11.00;99.90;;;;;;5096110;28;20554;-76
2023/10/27 01:18:32;;;;;;;15.80;8.30;;;11.10;99.90;;;;;;5093488;28;20174;-77
2023/10/27 01:20:58;;;;;;;15.60;8.77;;;11.10;99.90;;;;;;5093353;28;20223;-77
2023/10/27 01:23:24;;;;;;;21.30;8.33;;;11.00;99.90;;;;;;5093170;28;20254;-76
2023/10/27 01:25:50;;;;;;;15.83;8.30;;;11.00;99.90;;;;;;5093267;28;20320;-76
2023/10/27 01:28:15;;;;;;;15.57;8.30;;;11.00;99.90;;;;;;5088567;28;20178;-77
2023/10/27 01:30:41;;;;;;;12.70;7.03;;;11.10;99.90;;;;;;5074355;28;20191;-77
2023/10/27 01:33:06;;;;;;;14.73;7.93;;;11.00;99.90;;;;;;5073888;28;20603;-77
2023/10/27 01:35:32;;;;;;;12.67;7.43;;;11.00;99.90;;;;;;5073911;28;20567;-77
2023/10/27 01:37:57;;;;;;;14.83;7.03;;;11.00;99.90;;;;;;5072613;28;20585;-77
2023/10/27 01:40:23;;;;;;;13.07;6.80;;;11.00;99.90;;;;;;5073815;28;20271;-77
2023/10/27 01:42:48;;;;;;;15.70;7.53;;;11.00;99.90;;;;;;5085504;28;20179;-77
2023/10/27 01:45:14;;;;;;;20.33;6.77;;;11.00;99.90;;;;;;5093701;28;20193;-77
2023/10/27 01:47:39;;;;;;;18.07;7.17;;;11.00;99.90;;;;;;5093984;28;20166;-77
2023/10/27 01:50:06;;;;;;;14.10;6.73;;;11.00;99.90;;;;;;5093922;28;20174;-77
2023/10/27 01:52:32;;;;;;;15.40;6.83;;;11.00;99.90;;;;;;5094381;28;20260;-77
2023/10/27 01:54:57;;;;;;;16.20;6.53;;;11.00;99.90;;;;;;5092478;28;20235;-78
2023/10/27 01:57:23;;;;;;;17.67;6.00;;;11.00;99.90;;;;;;5091937;28;20281;-77
2023/10/27 01:59:50;;;;;;;16.03;6.00;;;11.00;99.90;;;;;;5093812;28;20166;-77
2023/10/27 02:02:16;;;;;;;19.67;6.40;;;11.00;99.90;;;;;;5093656;28;20253;-77
2023/10/27 02:04:42;;;;;;;17.73;6.37;;;11.00;99.90;;;;;;5093516;28;20189;-77
2023/10/27 02:07:07;;;;;;;16.33;6.47;;;11.00;99.90;;;;;;5093421;28;20203;-77
2023/10/27 02:09:33;;;;;;;16.27;6.70;;;11.00;99.90;;;;;;5093340;28;20177;-78
2023/10/27 02:11:58;;;;;;;14.20;6.50;;;11.00;99.90;;;;;;5093606;28;20174;-77
2023/10/27 02:14:27;;;;;;;18.33;6.37;;;11.00;99.90;;;;;;5089694;28;20289;-77
2023/10/27 02:16:52;;;;;;;16.97;6.20;;;11.00;99.90;;;;;;5089027;28;20285;-77
2023/10/27 02:19:18;;;;;;;19.13;6.47;;;11.00;99.90;;;;;;5093518;28;20217;-77
2023/10/27 02:21:45;;;;;;;18.90;5.87;;;10.90;99.90;;;;;;5093293;28;20177;-77
2023/10/27 02:24:11;;;;;;;16.80;6.43;;;10.90;99.90;;;;;;5093245;28;20193;-77
2023/10/27 02:26:37;;;;;;;20.83;6.10;;;10.90;99.90;;;;;;5093412;28;20174;-77
2023/10/27 02:29:02;;;;;;;19.27;6.10;;;10.90;99.90;;;;;;5091105;28;20198;-77
2023/10/27 02:31:28;;;;;;;13.67;6.13;;;10.90;99.90;;;;;;5093571;28;20268;-77
2023/10/27 02:33:54;;;;;;;16.17;5.33;;;10.90;99.90;;;;;;5093589;28;20716;-77
2023/10/27 02:36:19;;;;;;;15.33;5.83;;;10.90;99.90;;;;;;5093788;28;20678;-77
2023/10/27 02:38:45;;;;;;;14.13;5.90;;;10.90;99.90;;;;;;5095036;28;20174;-77
2023/10/27 02:41:11;;;;;;;15.00;5.30;;;10.80;99.90;;;;;;5091816;28;20189;-78
2023/10/27 02:43:38;;;;;;;17.37;5.40;;;10.90;99.90;;;;;;5093482;28;20174;-77
2023/10/27 02:46:04;;;;;;;15.70;5.37;;;10.90;99.90;;;;;;5092172;28;20553;-77
2023/10/27 02:48:30;;;;;;;13.93;5.20;;;10.80;99.90;;;;;;5093529;28;20167;-77
2023/10/27 02:50:56;;;;;;;14.87;5.70;;;10.80;99.90;;;;;;5093801;28;20178;-77
2023/10/27 02:53:21;;;;;;;17.20;5.40;;;10.80;99.90;;;;;;5091702;28;20176;-77
2023/10/27 02:55:47;;;;;;;14.10;4.90;;;10.80;99.90;;;;;;5079762;28;20254;-77
2023/10/27 02:58:12;;;;;;;13.13;4.63;;;10.80;99.90;;;;;;5071202;28;20175;-77
2023/10/27 03:00:42;;;;;;;14.27;5.03;;;10.80;99.90;;;;;;5072588;28;20250;-77
2023/10/27 03:03:09;;;;;;;18.10;5.17;;;10.80;99.90;;;;;;5072502;28;20202;-77
2023/10/27 03:05:35;;;;;;;14.73;5.40;;;10.80;99.90;;;;;;5072520;28;20193;-77
2023/10/27 03:08:01;;;;;;;16.67;5.70;;;10.80;99.90;;;;;;5072692;28;20182;-77
2023/10/27 03:10:26;;;;;;;16.30;5.33;;;10.80;99.90;;;;;;5072774;28;20210;-77
2023/10/27 03:12:53;;;;;;;15.03;4.83;;;10.80;99.90;;;;;;5092892;28;20200;-77
2023/10/27 03:15:18;;;;;;;18.40;5.23;;;10.80;99.90;;;;;;5093089;28;20232;-77
2023/10/27 03:17:45;;;;;;;15.90;4.97;;;10.70;99.90;;;;;;5092961;28;20611;-77
2023/10/27 03:20:11;;;;;;;15.40;4.50;;;10.70;99.90;;;;;;5093297;28;20303;-78
2023/10/27 03:22:37;;;;;;;9.27;4.50;;;10.70;99.90;;;;;;5092860;28;20215;-77
2023/10/27 03:25:03;;;;;;;13.07;4.83;;;10.70;99.90;;;;;;5093035;28;20659;-77
2023/10/27 03:27:30;;;;;;;13.03;4.17;;;10.70;99.90;;;;;;5091101;28;20564;-78
2023/10/27 03:29:56;;;;;;;10.40;4.40;;;10.70;99.90;;;;;;5096395;28;20186;-77
2023/10/27 03:32:22;;;;;;;13.63;4.83;;;10.70;99.90;;;;;;5096523;28;20181;-77
2023/10/27 03:34:47;;;;;;;12.93;4.13;;;10.70;99.90;;;;;;5096423;28;20198;-77
2023/10/27 03:37:13;;;;;;;13.27;4.60;;;10.70;99.90;;;;;;5096527;28;20234;-78
2023/10/27 03:39:42;;;;;;;22.90;5.33;;;10.70;99.90;;;;;;5096604;28;20256;-77
2023/10/27 03:42:08;;;;;;;11.87;4.17;;;10.70;99.90;;;;;;5094895;28;20248;-77
2023/10/27 03:44:34;;;;;;;12.53;4.70;;;10.60;99.90;;;;;;5096482;28;20200;-77
2023/10/27 03:47:00;;;;;;;19.20;4.80;;;10.70;99.90;;;;;;5096638;28;20186;-77
2023/10/27 03:49:27;;;;;;;16.17;4.77;;;10.70;99.90;;;;;;5096389;28;20261;-77
2023/10/27 03:51:53;;;;;;;10.67;4.50;;;10.60;99.90;;;;;;5096421;28;20174;-77
2023/10/27 03:54:19;;;;;;;13.70;4.23;;;10.60;99.90;;;;;;5096260;28;20217;-77
2023/10/27 03:56:45;;;;;;;11.10;4.07;;;10.60;99.90;;;;;;5096786;28;20641;-77
2023/10/27 03:59:10;;;;;;;17.47;4.80;;;10.60;99.90;;;;;;5094149;28;20182;-77
2023/10/27 04:01:37;;;;;;;10.00;3.90;;;10.60;99.90;;;;;;5089653;28;20194;-77
2023/10/27 04:04:03;;;;;;;15.57;5.00;;;10.60;99.90;;;;;;5075914;28;20195;-76
2023/10/27 04:06:29;;;;;;;15.37;4.40;;;10.60;99.90;;;;;;5075791;28;20304;-77
2023/10/27 04:08:54;;;;;;;17.77;4.37;;;10.60;99.90;;;;;;5075960;28;20653;-78
2023/10/27 04:11:20;;;;;;;12.37;4.63;;;10.60;99.90;;;;;;5075685;28;20174;-76
2023/10/27 04:13:45;;;;;;;11.73;4.07;;;10.60;99.90;;;;;;5080122;28;20676;-77
2023/10/27 04:16:12;;;;;;;14.57;4.90;;;10.60;99.90;;;;;;5096442;28;20565;-78
2023/10/27 04:18:38;;;;;;;9.57;4.53;;;10.60;99.90;;;;;;5096772;28;20162;-77
2023/10/27 04:21:04;;;;;;;12.43;4.53;;;10.60;99.90;;;;;;5096236;28;20171;-77
2023/10/27 04:23:30;;;;;;;12.60;4.53;;;10.60;99.90;;;;;;5096233;28;20241;-77
2023/10/27 04:25:56;;;;;;;22.30;4.77;;;10.50;99.90;;;;;;5094797;28;20178;-78
2023/10/27 04:28:21;;;;;;;14.57;4.27;;;10.60;99.90;;;;;;5096365;28;20700;-77
2023/10/27 04:30:47;;;;;;;18.97;4.07;;;10.60;99.90;;;;;;5094356;28;20247;-78
2023/10/27 04:33:13;;;;;;;13.20;4.43;;;10.60;99.90;;;;;;5094817;28;20179;-77
2023/10/27 04:35:38;;;;;;;18.97;4.50;;;10.50;99.90;;;;;;5096738;28;20194;-77
2023/10/27 04:38:04;;;;;;;16.30;4.43;;;10.60;99.90;;;;;;5095781;28;20709;-77
2023/10/27 04:40:31;;;;;;;11.43;4.40;;;10.50;99.90;;;;;;5094469;28;20685;-77
2023/10/27 04:42:58;;;;;;;13.47;4.23;;;10.50;99.90;;;;;;5096276;28;20170;-76
2023/10/27 04:45:24;;;;;;;10.43;3.87;;;10.50;99.90;;;;;;5092702;28;20206;-77
2023/10/27 04:47:50;;;;;;;13.63;4.07;;;10.50;99.90;;;;;;5095803;28;20201;-78
2023/10/27 04:50:17;;;;;;;12.27;3.80;;;10.60;99.90;;;;;;5095940;28;20646;-77
2023/10/27 04:52:43;;;;;;;14.93;4.90;;;10.50;99.90;;;;;;5095966;28;20685;-77
2023/10/27 04:55:09;;;;;;;8.83;3.37;;;10.50;99.90;;;;;;5095438;28;20230;-77
2023/10/27 04:57:35;;;;;;;8.27;3.70;;;10.50;99.90;;;;;;5095171;28;20194;-77
2023/10/27 05:00:01;;;;;;;16.73;3.50;;;10.50;99.90;;;;;;5095070;28;20182;-77
2023/10/27 05:02:27;;;;;;;14.23;4.27;;;10.50;99.90;;;;;;5093455;28;20189;-77
2023/10/27 05:04:52;;;;;;;16.73;4.20;;;10.50;99.90;;;;;;5095021;28;20243;-77
2023/10/27 05:07:18;;;;;;;13.13;3.90;;;10.50;99.90;;;;;;5095522;28;20178;-77
2023/10/27 05:09:43;;;;;;;8.47;3.17;;;10.50;99.90;;;;;;5094917;28;20182;-77
2023/10/27 05:12:09;;;;;;;10.97;3.30;;;10.50;99.90;;;;;;5095608;28;20184;-77
2023/10/27 05:14:34;;;;;;;17.77;4.23;;;10.40;99.90;;;;;;5095131;28;20198;-76
2023/10/27 05:17:00;;;;;;;13.37;3.40;;;10.40;99.90;;;;;;5091009;28;20202;-77
2023/10/27 05:19:26;;;;;;;11.70;3.90;;;10.40;99.90;;;;;;5094828;28;20181;-77
2023/10/27 05:21:52;;;;;;;14.93;4.03;;;10.40;99.90;;;;;;5094635;28;20630;-77
2023/10/27 05:24:17;;;;;;;10.63;3.63;;;10.40;99.90;;;;;;5094767;28;20198;-77
2023/10/27 05:26:43;;;;;;;9.60;4.00;;;10.40;99.90;;;;;;5094800;28;20240;-77
2023/10/27 05:29:10;;;;;;;10.40;3.60;;;10.50;99.90;;;;;;5094345;28;20272;-78
2023/10/27 05:31:35;;;;;;;9.57;3.57;;;10.40;99.90;;;;;;5094669;28;20216;-76
2023/10/27 05:34:01;;;;;;;12.17;3.60;;;10.40;99.90;;;;;;5091975;28;20605;-78
2023/10/27 05:36:26;;;;;;;10.30;3.27;;;10.40;99.90;;;;;;5093617;28;20278;-77
2023/10/27 05:38:52;;;;;;;11.40;3.60;;;10.40;99.90;;;;;;5094699;28;20170;-77
2023/10/27 05:41:18;;;;;;;13.70;3.43;;;10.40;99.90;;;;;;5092526;28;20186;-76
2023/10/27 05:43:44;;;;;;;14.20;3.97;;;10.40;99.90;;;;;;5094017;28;20607;-76
2023/10/27 05:46:09;;;;;;;14.40;3.50;;;10.40;99.90;;;;;;5093788;28;20170;-77
2023/10/27 05:48:36;;;;;;;21.50;3.47;;;10.40;99.90;;;;;;5093761;28;20170;-76
2023/10/27 05:51:03;;;;;;;14.07;3.23;;;10.40;99.90;;;;;;5091999;28;20204;-77
2023/10/27 05:53:28;;;;;;;13.30;3.73;;;10.40;99.90;;;;;;5093519;28;20235;-76
2023/10/27 05:55:54;;;;;;;14.77;3.47;;;10.50;99.90;;;;;;5090707;28;20551;-76
2023/10/27 05:58:19;;;;;;;11.70;3.30;;;10.50;99.90;;;;;;5093456;28;20249;-77
2023/10/27 06:00:46;;;;;;;9.10;3.10;;;10.50;99.90;;;;;;5092011;28;20171;-77
2023/10/27 06:03:12;;;;;;;15.30;3.43;;;10.50;99.90;;;;;;5093304;28;20188;-77
2023/10/27 06:05:37;;;;;;;24.97;4.03;;;10.40;99.90;;;;;;5093231;28;20326;-76
2023/10/27 06:08:03;;;;;;;21.73;4.20;;;10.50;99.90;;;;;;5093151;28;20549;-76
2023/10/27 06:10:29;;;;;;;9.07;3.27;;;10.50;99.90;;;;;;5090882;28;20193;-77
2023/10/27 06:12:55;;;;;;;9.63;3.03;;;10.50;99.90;;;;;;5093134;28;20251;-77
2023/10/27 06:15:21;;;;;;;14.67;3.43;;;10.50;99.90;;;;;;5092161;28;20238;-77
2023/10/27 06:17:46;;;;;;;16.50;3.60;;;10.50;99.90;;;;;;5093031;28;20272;-77
2023/10/27 06:20:12;;;;;;;12.60;3.47;;;10.50;99.90;;;;;;5093293;28;20209;-77
2023/10/27 06:22:38;;;;;;;14.97;3.50;;;10.50;99.90;;;;;;5093002;28;20189;-77
2023/10/27 06:25:04;;;;;;;17.17;3.60;;;10.50;99.90;;;;;;5093025;28;20182;-77
2023/10/27 06:27:29;;;;;;;13.23;3.43;;;10.50;99.90;;;;;;5091464;28;20201;-76
2023/10/27 06:29:56;;;;;;;16.03;3.47;;;10.50;99.90;;;;;;5073104;28;20199;-77
2023/10/27 06:32:23;;;;;;;11.63;3.30;;;10.50;99.90;;;;;;5071490;28;20179;-77
2023/10/27 06:34:48;;;;;;;15.70;3.63;;;10.50;99.90;;;;;;5072520;28;20201;-77
2023/10/27 06:37:14;;;;;;;14.30;3.83;;;10.50;99.90;;;;;;5071089;28;20199;-76
2023/10/27 06:39:40;;;;;;;13.47;3.50;;;10.50;99.90;;;;;;5071196;28;20242;-76
2023/10/27 06:42:06;;;;;;;17.77;3.73;;;10.50;99.90;;;;;;5074076;28;20642;-76
2023/10/27 06:44:31;;;;;;;10.63;3.97;;;10.50;99.90;;;;;;5093016;28;20213;-77
2023/10/27 06:46:57;;;;;;;16.63;3.80;;;10.50;99.90;;;;;;5091461;28;20218;-77
2023/10/27 06:49:23;;;;;;;12.13;3.77;;;10.50;99.90;;;;;;5092666;28;20166;-77
2023/10/27 06:51:49;;;;;;;15.73;4.00;;;10.50;99.90;;;;;;5092753;28;20174;-77
2023/10/27 06:54:14;;;;;;;14.27;3.70;;;10.50;99.90;;;;;;5092638;28;20199;-77
2023/10/27 06:56:40;;;;;;;13.23;4.30;;;10.50;99.90;;;;;;5092413;28;20288;-77
2023/10/27 06:59:06;;;;;;;13.93;4.20;;;10.50;99.90;;;;;;5092441;28;20166;-77
2023/10/27 07:01:31;;;;;;;14.80;4.17;;;10.60;99.90;;;;;;5092044;28;20181;-77
2023/10/27 07:03:57;;;;;;;13.33;3.70;;;10.60;99.90;;;;;;5091893;28;20206;-77
2023/10/27 07:06:24;;;;;;;14.57;3.77;;;10.60;99.90;;;;;;5092810;28;20173;-77
2023/10/27 07:08:49;;;;;;;12.83;4.27;;;10.60;99.90;;;;;;5092441;28;20197;-74
2023/10/27 07:11:15;;;;;;;12.83;3.80;;;10.60;99.90;;;;;;5092364;28;20634;-75
2023/10/27 07:13:40;;;;;;;10.67;4.10;;;10.60;99.90;;;;;;5092273;28;20170;-75
2023/10/27 07:16:06;;;;;;;11.23;3.53;;;10.60;99.90;;;;;;5092337;28;20198;-75
2023/10/27 07:18:31;;;;;;;13.30;3.93;;;10.60;99.90;;;;;;5092314;28;20167;-75
2023/10/27 07:20:57;;;;;;;15.20;3.83;;;10.60;99.90;;;;;;5092388;28;20201;-75
2023/10/27 07:23:23;;;;;;;7.97;3.93;;;10.70;99.90;;;;;;5092419;28;20249;-76
2023/10/27 07:25:50;;;;;;;10.27;4.17;;;10.70;99.90;;;;;;5092364;28;20190;-76
2023/10/27 07:28:15;;;;;;;13.90;4.07;;;10.70;99.90;;;;;;5090891;28;20555;-76
2023/10/27 07:30:41;;;;;;;11.73;4.13;;;10.70;99.90;;;;;;5080815;28;20187;-76
2023/10/27 07:33:07;;;;;;;10.03;3.90;;;10.70;99.90;;;;;;5072229;28;20328;-75
2023/10/27 07:35:32;;;;;;;16.10;4.27;;;10.80;99.90;;;;;;5070644;28;20700;-76
2023/10/27 07:37:59;;;;;;;11.00;3.90;;;10.70;99.90;;;;;;5072090;28;20206;-75
2023/10/27 07:40:25;;;;;;;13.43;4.70;;;10.80;99.90;;;;;;5070701;28;20274;-76
2023/10/27 07:42:51;;;;;;;12.00;4.23;;;10.80;99.90;;;;;;5070706;28;20175;-75
2023/10/27 07:45:16;;;;;;;11.83;4.30;;;10.80;99.90;;;;;;5071232;28;20187;-76
2023/10/27 07:47:43;;;;;;;7.20;3.67;;;10.80;99.90;;;;;;5071888;28;20186;-75
2023/10/27 07:50:10;;;;;;;16.50;3.97;;;10.80;99.90;;;;;;5070474;28;20179;-76
2023/10/27 07:52:36;;;;;;;10.63;3.40;;;10.90;99.90;;;;;;5070551;28;20194;-75
2023/10/27 07:55:02;;;;;;;6.27;3.27;;;10.80;99.90;;;;;;5071674;28;20674;-76
2023/10/27 07:57:28;;;;;;;10.63;3.67;;;10.90;99.90;;;;;;5071856;28;20198;-76
2023/10/27 07:59:54;;;;;;;9.17;3.27;;;10.90;99.90;;;;;;5070821;28;20171;-76
2023/10/27 08:02:19;;;;;;;10.93;3.50;;;10.90;99.90;;;;;;5084452;28;20178;-77
2023/10/27 08:04:45;;;;;;;11.30;3.50;;;10.90;99.90;;;;;;5092235;28;20273;-77
2023/10/27 08:07:10;;;;;;;8.40;3.23;;;11.00;99.90;;;;;;5092287;28;20179;-77
2023/10/27 08:09:36;;;;;;;6.73;2.80;;;11.00;99.90;;;;;;5092069;28;20622;-76
2023/10/27 08:12:04;;;;;;;7.47;2.70;;;11.00;99.90;;;;;;5092159;28;20287;-75
2023/10/27 08:14:32;;;;;;;8.10;2.80;;;11.00;99.90;;;;;;5098338;28;20673;-75
2023/10/27 08:16:58;;;;;;;9.40;2.77;;;11.00;99.90;;;;;;5094263;28;20190;-76
2023/10/27 08:19:24;;;;;;;11.13;3.10;;;11.00;99.90;;;;;;5095819;28;20166;-77
2023/10/27 08:21:50;;;;;;;6.87;2.70;;;11.00;99.90;;;;;;5095696;28;20170;-77
2023/10/27 08:24:16;;;;;;;6.57;2.60;;;11.00;99.90;;;;;;5095921;28;20216;-77
2023/10/27 08:26:43;;;;;;;9.60;2.93;;;11.00;99.90;;;;;;5095615;28;20187;-77
2023/10/27 08:29:09;;;;;;;5.67;2.70;;;11.10;99.90;;;;;;5095775;28;20186;-77
2023/10/27 08:31:34;;;;;;;8.63;3.10;;;11.00;99.90;;;;;;5095684;28;20170;-77
2023/10/27 08:34:01;;;;;;;8.20;2.93;;;11.10;99.90;;;;;;5094250;28;20226;-77
2023/10/27 08:36:27;;;;;;;7.40;3.13;;;11.10;99.90;;;;;;5094494;28;20228;-77
2023/10/27 08:38:56;;;;;;;5.70;2.93;;;11.10;99.90;;;;;;5095486;28;20171;-77
2023/10/27 08:41:25;;;;;;;6.13;3.07;;;11.10;99.90;;;;;;5096683;28;20171;-77
2023/10/27 08:43:52;;;;;;;7.47;3.10;;;11.10;99.90;;;;;;5096282;28;20182;-78
2023/10/27 08:46:18;;;;;;;10.00;3.50;;;11.10;99.90;;;;;;5095919;28;20170;-77
2023/10/27 08:48:43;;;;;;;7.73;3.00;;;11.10;99.90;;;;;;5093503;28;20269;-75
2023/10/27 08:51:11;;;;;;;10.33;3.03;;;11.20;99.90;;;;;;5094809;28;20303;-75
2023/10/27 08:53:40;;;;;;;8.37;3.53;;;11.10;99.90;;;;;;5094528;28;20167;-75
2023/10/27 08:56:12;;;;;;;14.10;8.23;;;11.10;99.90;;;;;;5094712;28;20249;-76
2023/10/27 08:58:47;;;;;;;7.03;4.23;;;11.20;99.90;;;;;;5094465;28;20538;-75
2023/10/27 09:01:13;;;;;;;4.77;3.40;;;11.20;99.90;;;;;;5094941;28;20153;-73
2023/10/27 09:03:39;;;;;;;8.03;4.13;;;11.20;99.90;;;;;;5094738;28;20167;-76
2023/10/27 09:06:05;;;;;;;5.77;3.80;;;11.20;99.90;;;;;;5094520;28;20249;-76
2023/10/27 09:08:30;;;;;;;7.20;4.27;;;11.20;99.90;;;;;;5094488;28;20756;-76
2023/10/27 09:10:56;;;;;;;6.53;5.13;;;11.30;99.90;;;;;;5090787;28;20189;-76
2023/10/27 09:13:22;;;;;;;8.70;4.80;;;11.30;99.90;;;;;;5094364;28;20249;-76
2023/10/27 09:15:50;;;;;;;6.97;5.53;;;11.30;99.90;;;;;;5094673;28;20194;-76
2023/10/27 09:18:16;;;;;;;7.57;5.00;;;11.40;99.90;;;;;;5094365;28;20232;-75
2023/10/27 09:20:52;;;;;;;9.17;5.17;;;11.40;99.90;;;;;;5094309;28;20174;-75
2023/10/27 09:23:19;;;;;;;6.60;4.80;;;11.40;99.90;;;;;;5094359;28;20162;-76
2023/10/27 09:25:46;;;;;;;4.93;4.07;;;11.50;99.90;;;;;;5090972;28;20547;-76
2023/10/27 09:28:12;;;;;;;8.00;5.17;;;11.50;99.90;;;;;;5054100;28;20172;-76
2023/10/27 09:30:42;;;;;;;8.23;5.03;;;11.50;99.90;;;;;;5052537;28;20176;-76
2023/10/27 09:33:20;;;;;;;7.03;4.50;;;11.40;99.90;;;;;;5053775;28;20218;-76
2023/10/27 09:35:47;;;;;;;6.23;4.33;;;11.50;99.90;;;;;;5052387;28;20196;-76
2023/10/27 09:38:13;;;;;;;7.37;5.63;;;11.50;99.90;;;;;;5053608;28;20642;-77
2023/10/27 09:40:41;;;;;;;5.80;4.93;;;11.50;99.90;;;;;;5054171;28;20306;-76
2023/10/27 09:43:09;;;;;;;5.63;3.70;;;11.50;99.90;;;;;;5077962;28;20179;-76
2023/10/27 09:45:36;;;;;;;6.13;3.57;;;11.50;99.90;;;;;;5093784;28;20190;-75
2023/10/27 09:48:04;;;;;;;5.43;3.93;;;11.50;99.90;;;;;;5093690;28;20223;-76
2023/10/27 09:50:31;;;;;;;5.93;4.20;;;11.60;99.90;;;;;;5093983;28;20249;-76
2023/10/27 09:52:59;;;;;;;6.33;4.20;;;11.60;99.90;;;;;;5093752;28;20174;-77
2023/10/27 09:55:26;;;;;;;7.07;4.97;;;11.60;99.90;;;;;;5093297;28;20201;-76
2023/10/27 09:57:52;;;;;;;6.60;4.57;;;11.60;99.90;;;;;;5093119;28;20209;-76
2023/10/27 10:00:21;;;;;;;5.90;4.63;;;11.60;99.90;;;;;;5094715;28;20198;-77
2023/10/27 10:02:47;;;;;;;9.17;4.33;;;11.60;99.90;;;;;;5093539;28;20188;-77
2023/10/27 10:05:12;;;;;;;6.60;3.90;;;11.60;99.90;;;;;;5093467;28;20258;-76
2023/10/27 10:07:44;;;;;;;4.97;3.70;;;11.70;99.90;;;;;;5093594;28;20678;-77
2023/10/27 10:10:25;;;;;;;5.20;3.67;;;11.70;99.90;;;;;;5093588;28;20610;-77
2023/10/27 10:13:03;;;;;;;6.00;3.70;;;11.70;99.90;;;;;;5093314;28;20158;-77
2023/10/27 10:15:58;;;;;;;5.37;3.47;;;11.70;99.90;;;;;;5093312;28;20212;-79
2023/10/27 10:18:35;;;;;;;6.00;3.73;;;11.80;99.90;;;;;;5095045;28;20202;-76
2023/10/27 10:21:01;;;;;;;4.77;3.90;;;11.80;99.90;;;;;;5093050;28;20166;-76
2023/10/27 10:23:44;;;;;;;5.60;3.93;;;11.80;99.90;;;;;;5091910;28;20609;-76
2023/10/27 10:26:10;;;;;;;7.70;4.80;;;11.90;99.90;;;;;;5093192;28;20585;-76
2023/10/27 10:28:39;;;;;;;6.03;4.73;;;11.90;99.90;;;;;;5092959;28;20178;-76
2023/10/27 10:31:07;;;;;;;7.13;4.47;;;11.90;99.90;;;;;;5073719;28;20257;-76
2023/10/27 10:33:48;;;;;;;6.07;5.20;;;11.90;99.90;;;;;;5092751;28;20194;-75
2023/10/27 10:36:22;;;;;;;9.67;6.87;;;11.90;99.90;;;;;;5092711;28;20156;-75
2023/10/27 10:38:53;;;;;;;8.53;5.90;;;11.90;99.90;;;;;;5092608;28;20232;-75
2023/10/27 10:41:19;;;;;;;7.03;5.93;;;11.90;99.90;;;;;;5092788;28;20178;-76
2023/10/27 10:44:05;;;;;;;14.10;9.83;;;11.90;99.90;;;;;;5091737;28;20185;-75
2023/10/27 10:46:31;;;;;;;13.10;9.20;;;12.00;99.90;;;;;;5092136;28;20194;-76
2023/10/27 10:48:56;;;;;;;14.17;9.77;;;12.00;99.90;;;;;;5093154;28;20328;-75
2023/10/27 10:51:30;;;;;;;11.97;9.80;;;12.00;99.90;;;;;;5092852;28;20638;-76
2023/10/27 10:53:56;;;;;;;10.43;8.17;;;12.10;99.90;;;;;;5091332;28;20730;-76
2023/10/27 10:56:22;;;;;;;9.93;7.53;;;12.00;99.90;;;;;;5092529;28;20171;-77
2023/10/27 10:58:48;;;;;;;10.60;9.23;;;12.10;99.90;;;;;;5090928;28;20359;-77
2023/10/27 11:01:21;;;;;;;7.90;6.47;;;12.10;99.90;;;;;;5092663;28;20253;-75
2023/10/27 11:03:51;;;;;;;9.20;6.40;;;12.10;99.90;;;;;;5092795;28;20220;-76
2023/10/27 11:06:24;;;;;;;6.67;5.97;;;12.20;99.90;;;;;;5091179;28;20266;-76
2023/10/27 11:08:50;;;;;;;8.17;5.87;;;12.20;99.90;;;;;;5091269;28;20600;-76
2023/10/27 11:11:19;;;;;;;7.70;5.67;;;12.10;99.90;;;;;;5092459;28;20210;-76
2023/10/27 11:13:50;;;;;;;7.70;5.67;;;12.10;99.90;;;;;;5092302;28;20215;-77
2023/10/27 11:16:23;;;;;;;10.63;6.60;;;12.10;99.90;;;;;;5092172;28;20174;-76
2023/10/27 11:18:52;;;;;;;7.80;6.20;;;12.10;99.90;;;;;;5092389;28;20189;-76
2023/10/27 11:21:19;;;;;;;7.73;6.77;;;12.20;99.90;;;;;;5091097;28;20170;-76
2023/10/27 11:23:46;;;;;;;7.73;5.90;;;12.10;99.90;;;;;;5092279;28;20166;-76
2023/10/27 11:26:13;;;;;;;7.93;6.13;;;12.10;99.90;;;;;;5091070;28;20198;-76
2023/10/27 11:28:40;;;;;;;9.20;7.13;;;12.10;99.90;;;;;;5092339;28;20182;-76
2023/10/27 11:31:08;;;;;;;8.27;5.97;;;12.00;99.90;;;;;;5075183;28;20183;-76
2023/10/27 11:33:53;;;;;;;9.67;6.43;;;12.10;99.90;;;;;;5071995;28;20258;-76
2023/10/27 11:36:18;;;;;;;8.73;5.70;;;12.10;99.90;;;;;;5072292;28;20250;-75
2023/10/27 11:38:44;;;;;;;10.20;6.73;;;12.00;99.90;;;;;;5070705;28;20243;-76
2023/10/27 11:41:11;;;;;;;10.03;5.73;;;12.00;99.90;;;;;;5073824;28;20185;-76
2023/10/27 11:43:37;;;;;;;7.17;6.40;;;12.00;99.90;;;;;;5090915;28;20546;-75
2023/10/27 11:46:14;;;;;;;9.13;5.77;;;12.00;99.90;;;;;;5092373;28;20167;-76
2023/10/27 11:48:40;;;;;;;8.73;5.73;;;12.00;99.90;;;;;;5093390;28;20173;-76
2023/10/27 11:51:07;;;;;;;7.83;5.27;;;12.00;99.90;;;;;;5095946;28;20192;-76
2023/10/27 11:53:34;;;;;;;6.07;5.43;;;12.00;99.90;;;;;;5095801;28;20253;-76
2023/10/27 11:56:00;;;;;;;8.00;6.00;;;12.00;99.90;;;;;;5080832;28;20175;-77
2023/10/27 11:58:26;;;;;;;6.80;5.90;;;12.00;99.90;;;;;;5075757;28;20206;-76
2023/10/27 12:00:51;;;;;;;7.10;5.63;;;12.00;99.90;;;;;;5075519;28;20246;-76
2023/10/27 12:03:17;;;;;;;7.70;6.63;;;12.10;99.90;;;;;;5075548;28;20611;-76
2023/10/27 12:05:43;;;;;;;9.57;6.97;;;12.10;99.90;;;;;;5074256;28;20662;-76
2023/10/27 12:08:08;;;;;;;9.27;7.17;;;12.10;99.90;;;;;;5075453;28;20213;-76
2023/10/27 12:10:34;;;;;;;10.97;7.00;;;12.10;99.90;;;;;;5074702;28;20179;-76
2023/10/27 12:13:06;;;;;;;13.03;9.23;;;12.20;99.90;;;;;;5085356;28;20549;-76
2023/10/27 12:15:41;;;;;;;11.13;8.33;;;12.20;99.90;;;;;;5095795;28;20186;-76
2023/10/27 12:18:06;;;;;;;15.10;9.60;;;12.20;99.90;;;;;;5095605;28;20268;-76
2023/10/27 12:20:32;;;;;;;12.03;9.47;;;12.20;99.90;;;;;;5095746;28;20194;-76
2023/10/27 12:22:58;;;;;;;14.73;9.87;;;12.20;99.90;;;;;;5085464;28;20272;-77
2023/10/27 12:25:24;;;;;;;15.57;10.00;;;12.30;99.90;;;;;;5076181;28;20656;-76
2023/10/27 12:27:50;;;;;;;14.57;10.47;;;12.30;99.90;;;;;;5075385;28;20508;-76
2023/10/27 12:30:16;;;;;;;18.87;10.27;;;12.30;99.90;;;;;;5075036;28;20199;-77
2023/10/27 12:32:42;;;;;;;16.07;10.70;;;12.30;99.90;;;;;;5074894;28;20766;-76
2023/10/27 12:35:08;;;;;;;18.33;11.07;;;12.30;99.90;;;;;;5075794;28;20186;-77